Wetterdaten: Woche 23.01.17 - 29.01.17 (KW4)
Datum Zeit Temp. A. Feuchte A. Luftdruck Regen Wind Richtung Taupunkt Windchill Windben
23.01.2017 00:00 -4,1 C 76 % 1029,2 hPa 0,0 l/m 0,3 km/h N -7,8 C -4,1 C 6,8 km/h
23.01.2017 01:00 -4,3 C 76 % 1028,8 hPa 0,0 l/m 0,2 km/h N -7,9 C -4,3 C 4,4 km/h
23.01.2017 02:00 -4,7 C 77 % 1028,8 hPa 0,0 l/m 0,1 km/h N -8,1 C -4,7 C 2,8 km/h
23.01.2017 03:00 -5,1 C 77 % 1028,8 hPa 0,0 l/m 0,1 km/h N -8,5 C -5,1 C 4,0 km/h
23.01.2017 04:00 -5,5 C 78 % 1028,4 hPa 0,0 l/m 0,1 km/h N -8,7 C -5,5 C 3,6 km/h
23.01.2017 05:00 -5,6 C 79 % 1028,0 hPa 0,0 l/m 0,1 km/h N -8,7 C -5,6 C 2,8 km/h
23.01.2017 06:00 -5,9 C 80 % 1027,8 hPa 0,0 l/m 0,4 km/h N -8,8 C -5,9 C 4,8 km/h
23.01.2017 07:00 -6,4 C 81 % 1027,8 hPa 0,0 l/m 0,5 km/h N -9,1 C -6,4 C 6,0 km/h
23.01.2017 08:00 -6,5 C 83 % 1027,9 hPa 0,0 l/m 0,2 km/h N -8,9 C -6,5 C 6,8 km/h
23.01.2017 09:00 -5,8 C 83 % 1027,8 hPa 0,0 l/m 0,6 km/h N -8,2 C -5,8 C 6,4 km/h
23.01.2017 10:00 -5,6 C 83 % 1028,1 hPa 0,0 l/m 1,2 km/h N -8,0 C -5,6 C 9,1 km/h
23.01.2017 11:00 -5,4 C 83 % 1027,7 hPa 0,0 l/m 1,2 km/h N -7,8 C -5,4 C 5,5 km/h
23.01.2017 12:00 -5,2 C 83 % 1027,3 hPa 0,0 l/m 0,3 km/h N -7,6 C -5,2 C 5,2 km/h
23.01.2017 13:00 -4,8 C 83 % 1026,7 hPa 0,0 l/m 0,5 km/h N -7,2 C -4,8 C 5,6 km/h
23.01.2017 14:00 -4,4 C 82 % 1026,3 hPa 0,0 l/m 0,3 km/h N -7,0 C -4,4 C 3,6 km/h
23.01.2017 15:00 -4,5 C 82 % 1026,3 hPa 0,0 l/m 0,3 km/h N -7,1 C -4,5 C 4,8 km/h
23.01.2017 16:00 -4,8 C 81 % 1026,3 hPa 0,0 l/m 0,1 km/h N -7,6 C -4,8 C 2,8 km/h
23.01.2017 17:00 -5,2 C 82 % 1026,3 hPa 0,0 l/m 0,0 km/h N -7,8 C -5,2 C 1,2 km/h
23.01.2017 18:00 -5,5 C 82 % 1026,4 hPa 0,0 l/m 0,0 km/h N -8,0 C -5,5 C 0,8 km/h
23.01.2017 19:00 -5,7 C 83 % 1026,5 hPa 0,0 l/m 0,0 km/h N -8,2 C -5,7 C 1,2 km/h
23.01.2017 20:00 -5,9 C 83 % 1026,3 hPa 0,0 l/m 0,0 km/h N -8,3 C -5,9 C 1,2 km/h
23.01.2017 21:00 -6,0 C 83 % 1026,3 hPa 0,0 l/m 0,0 km/h N -8,4 C -6,0 C 0,8 km/h
23.01.2017 22:00 -6,1 C 83 % 1026,6 hPa 0,0 l/m 0,0 km/h N -8,5 C -6,1 C 0,0 km/h
23.01.2017 23:00 -6,1 C 84 % 1026,4 hPa 0,0 l/m 0,0 km/h N -8,4 C -6,1 C 0,0 km/h
24.01.2017 00:00 -6,2 C 84 % 1025,9 hPa 0,0 l/m 0,0 km/h N -8,4 C -6,2 C 2,0 km/h
24.01.2017 01:00 -6,2 C 84 % 1025,7 hPa 0,0 l/m 0,0 km/h N -8,4 C -6,2 C 0,4 km/h
24.01.2017 02:00 -5,9 C 84 % 1025,7 hPa 0,0 l/m 0,1 km/h N -8,1 C -5,9 C 2,0 km/h
24.01.2017 03:00 -5,7 C 84 % 1025,8 hPa 0,0 l/m 0,7 km/h N -8,0 C -5,7 C 8,4 km/h
24.01.2017 04:00 -5,7 C 84 % 1025,7 hPa 0,0 l/m 0,6 km/h N -8,0 C -5,7 C 6,4 km/h
24.01.2017 05:00 -6,0 C 84 % 1025,7 hPa 0,0 l/m 3,1 km/h N -8,2 C -6,0 C 9,3 km/h
24.01.2017 06:00 -6,3 C 84 % 1026,2 hPa 0,0 l/m 4,5 km/h N -8,5 C -6,3 C 12,5 km/h
24.01.2017 07:00 -6,3 C 84 % 1026,6 hPa 0,0 l/m 5,7 km/h N -8,5 C -6,3 C 15,7 km/h
24.01.2017 08:00 -6,2 C 84 % 1027,0 hPa 0,0 l/m 6,3 km/h N -8,4 C -6,5 C 16,1 km/h
24.01.2017 09:00 -6,1 C 84 % 1027,4 hPa 0,0 l/m 6,7 km/h N -8,4 C -6,8 C 17,7 km/h
24.01.2017 10:00 -6,0 C 83 % 1027,8 hPa 0,0 l/m 7,0 km/h N -8,5 C -6,9 C 16,9 km/h
24.01.2017 11:00 -5,8 C 83 % 1027,9 hPa 0,0 l/m 6,1 km/h N -8,2 C -5,9 C 16,9 km/h
24.01.2017 12:00 -5,5 C 82 % 1027,9 hPa 0,0 l/m 5,5 km/h N -8,1 C -5,5 C 16,5 km/h
24.01.2017 13:00 -5,4 C 81 % 1027,7 hPa 0,0 l/m 7,4 km/h N -8,1 C -6,6 C 20,5 km/h
24.01.2017 14:00 -5,3 C 80 % 1027,6 hPa 0,0 l/m 7,9 km/h N -8,2 C -7,0 C 19,7 km/h
24.01.2017 15:00 -5,1 C 80 % 1027,9 hPa 0,0 l/m 6,8 km/h N -8,0 C -5,9 C 17,7 km/h
24.01.2017 16:00 -5,0 C 80 % 1028,3 hPa 0,0 l/m 5,7 km/h N -7,9 C -5,2 C 16,1 km/h
24.01.2017 17:00 -4,9 C 81 % 1028,8 hPa 0,0 l/m 5,2 km/h N -7,7 C -4,9 C 15,7 km/h
24.01.2017 18:00 -4,7 C 80 % 1029,1 hPa 0,0 l/m 5,0 km/h N -7,6 C -4,7 C 15,3 km/h
24.01.2017 19:00 -4,6 C 80 % 1029,3 hPa 0,0 l/m 5,7 km/h N -7,6 C -4,8 C 18,1 km/h
24.01.2017 20:00 -4,7 C 80 % 1029,7 hPa 0,0 l/m 5,2 km/h N -7,6 C -4,7 C 14,1 km/h
24.01.2017 21:00 -4,6 C 80 % 1029,9 hPa 0,0 l/m 4,3 km/h N -7,6 C -4,6 C 11,7 km/h
24.01.2017 22:00 -4,6 C 80 % 1030,1 hPa 0,0 l/m 5,3 km/h N -7,5 C -4,6 C 16,1 km/h
24.01.2017 23:00 -4,4 C 80 % 1030,3 hPa 0,0 l/m 7,0 km/h N -7,4 C -5,4 C 17,3 km/h
25.01.2017 00:00 -4,2 C 79 % 1029,9 hPa 0,0 l/m 7,6 km/h N -7,2 C -5,5 C 18,9 km/h
25.01.2017 01:00 -3,7 C 79 % 1029,7 hPa 0,0 l/m 6,3 km/h N -6,9 C -3,9 C 16,9 km/h
25.01.2017 02:00 -3,4 C 78 % 1029,7 hPa 0,0 l/m 7,1 km/h N -6,6 C -4,2 C 17,3 km/h
25.01.2017 03:00 -3,3 C 78 % 1029,8 hPa 0,0 l/m 7,5 km/h N -6,5 C -4,6 C 17,7 km/h
25.01.2017 04:00 -3,2 C 78 % 1029,7 hPa 0,0 l/m 7,6 km/h N -6,5 C -4,5 C 18,1 km/h
25.01.2017 05:00 -3,1 C 78 % 1029,9 hPa 0,0 l/m 6,9 km/h N -6,4 C -3,6 C 19,3 km/h
25.01.2017 06:00 -2,9 C 79 % 1030,0 hPa 0,0 l/m 6,6 km/h N -6,0 C -3,1 C 16,9 km/h
25.01.2017 07:00 -2,6 C 78 % 1030,1 hPa 0,0 l/m 5,6 km/h N -5,9 C -2,6 C 15,3 km/h
25.01.2017 08:00 -2,3 C 78 % 1030,5 hPa 0,0 l/m 5,0 km/h N -5,6 C -2,3 C 14,1 km/h
25.01.2017 09:00 -1,9 C 78 % 1030,9 hPa 0,0 l/m 3,2 km/h N -5,3 C -1,9 C 10,1 km/h
25.01.2017 10:00 -1,5 C 77 % 1031,1 hPa 0,0 l/m 3,6 km/h N -4,9 C -1,5 C 12,1 km/h
25.01.2017 11:00 -0,9 C 76 % 1031,0 hPa 0,0 l/m 3,8 km/h N -4,6 C -0,9 C 11,7 km/h
25.01.2017 12:00 -0,8 C 77 % 1030,6 hPa 0,0 l/m 3,8 km/h N -4,4 C -0,8 C 11,3 km/h
25.01.2017 13:00 -0,8 C 77 % 1030,3 hPa 0,0 l/m 3,7 km/h N -4,3 C -0,8 C 10,9 km/h
25.01.2017 14:00 -0,7 C 77 % 1030,1 hPa 0,0 l/m 2,6 km/h N -4,2 C -0,7 C 9,7 km/h
25.01.2017 15:00 -0,6 C 77 % 1030,3 hPa 0,0 l/m 1,8 km/h N -4,2 C -0,6 C 8,1 km/h
25.01.2017 16:00 -0,7 C 77 % 1030,5 hPa 0,0 l/m 2,0 km/h N -4,2 C -0,7 C 8,4 km/h
25.01.2017 17:00 -0,8 C 77 % 1030,7 hPa 0,0 l/m 0,2 km/h N -4,3 C -0,8 C 2,8 km/h
25.01.2017 18:00 -0,8 C 77 % 1031,1 hPa 0,0 l/m 0,0 km/h N -4,3 C -0,8 C 1,2 km/h
25.01.2017 19:00 -0,9 C 78 % 1031,4 hPa 0,0 l/m 0,0 km/h N -4,3 C -0,9 C 1,6 km/h
25.01.2017 20:00 -1,0 C 78 % 1031,6 hPa 0,0 l/m 0,0 km/h N -4,3 C -1,0 C 0,0 km/h
25.01.2017 21:00 -1,1 C 79 % 1031,8 hPa 0,0 l/m 0,1 km/h N -4,3 C -1,1 C 1,6 km/h
25.01.2017 22:00 -1,3 C 79 % 1031,7 hPa 0,0 l/m 0,0 km/h N -4,4 C -1,3 C 0,8 km/h
25.01.2017 23:00 -1,7 C 80 % 1031,9 hPa 0,0 l/m 0,0 km/h N -4,7 C -1,7 C 0,0 km/h
26.01.2017 00:00 -2,1 C 81 % 1032,3 hPa 0,0 l/m 0,0 km/h N -4,9 C -2,1 C 0,4 km/h
26.01.2017 01:00 -2,3 C 81 % 1032,4 hPa 0,0 l/m 0,0 km/h N -5,2 C -2,3 C 0,8 km/h
26.01.2017 02:00 -2,5 C 80 % 1032,4 hPa 0,0 l/m 0,0 km/h N -5,4 C -2,5 C 0,0 km/h
26.01.2017 03:00 -2,7 C 80 % 1032,6 hPa 0,0 l/m 0,0 km/h N -5,6 C -2,7 C 0,4 km/h
26.01.2017 04:00 -2,9 C 80 % 1032,4 hPa 0,0 l/m 0,0 km/h N -5,8 C -2,9 C 0,0 km/h
26.01.2017 05:00 -3,0 C 81 % 1032,4 hPa 0,0 l/m 0,0 km/h N -5,8 C -3,0 C 0,0 km/h
26.01.2017 06:00 -3,2 C 81 % 1032,5 hPa 0,0 l/m 0,0 km/h N -5,9 C -3,2 C 0,4 km/h
26.01.2017 07:00 -3,0 C 82 % 1032,5 hPa 0,0 l/m 0,0 km/h N -5,7 C -3,0 C 1,2 km/h
26.01.2017 08:00 -2,7 C 82 % 1032,7 hPa 0,0 l/m 0,0 km/h N -5,4 C -2,7 C 0,8 km/h
26.01.2017 09:00 -2,0 C 80 % 1032,9 hPa 0,0 l/m 0,2 km/h N -5,0 C -2,0 C 4,4 km/h
26.01.2017 10:00 -1,0 C 77 % 1032,8 hPa 0,0 l/m 1,0 km/h N -4,6 C -1,0 C 7,6 km/h
26.01.2017 11:00 0,4 C 71 % 1032,3 hPa 0,0 l/m 1,8 km/h N -4,3 C 0,4 C 8,9 km/h
26.01.2017 12:00 1,8 C 65 % 1032,1 hPa 0,0 l/m 2,5 km/h N -4,1 C 1,8 C 12,9 km/h
26.01.2017 13:00 2,3 C 62 % 1031,6 hPa 0,0 l/m 1,8 km/h N -4,2 C 2,3 C 10,9 km/h
26.01.2017 14:00 2,1 C 63 % 1031,6 hPa 0,0 l/m 1,5 km/h N -4,2 C 2,1 C 10,4 km/h
26.01.2017 15:00 1,7 C 65 % 1031,6 hPa 0,0 l/m 1,2 km/h N -4,2 C 1,7 C 8,5 km/h
26.01.2017 16:00 0,8 C 67 % 1031,8 hPa 0,0 l/m 1,6 km/h N -4,6 C 0,8 C 12,9 km/h
26.01.2017 17:00 -0,2 C 70 % 1031,7 hPa 0,0 l/m 1,0 km/h N -5,0 C -0,2 C 8,4 km/h
26.01.2017 18:00 -0,9 C 71 % 1031,7 hPa 0,0 l/m 0,9 km/h N -5,5 C -0,9 C 5,6 km/h
26.01.2017 19:00 -1,4 C 73 % 1031,0 hPa 0,0 l/m 1,2 km/h N -5,6 C -1,4 C 8,5 km/h
26.01.2017 20:00 -1,8 C 74 % 1030,7 hPa 0,0 l/m 0,6 km/h N -5,8 C -1,8 C 6,8 km/h
26.01.2017 21:00 -2,3 C 76 % 1030,9 hPa 0,0 l/m 0,5 km/h N -6,1 C -2,3 C 9,7 km/h
26.01.2017 22:00 -2,7 C 77 % 1030,8 hPa 0,0 l/m 0,4 km/h N -6,2 C -2,7 C 7,2 km/h
26.01.2017 23:00 -2,9 C 77 % 1030,5 hPa 0,0 l/m 0,4 km/h N -6,4 C -2,9 C 6,8 km/h
27.01.2017 00:00 -2,9 C 77 % 1030,0 hPa 0,0 l/m 0,5 km/h N -6,4 C -2,9 C 6,0 km/h
27.01.2017 01:00 -3,2 C 77 % 1029,6 hPa 0,0 l/m 0,4 km/h N -6,8 C -3,2 C 5,6 km/h
27.01.2017 02:00 -3,5 C 78 % 1029,3 hPa 0,0 l/m 0,2 km/h N -6,9 C -3,5 C 3,6 km/h
27.01.2017 03:00 -4,0 C 78 % 1029,0 hPa 0,0 l/m 0,1 km/h N -7,2 C -4,0 C 6,0 km/h
27.01.2017 04:00 -4,5 C 80 % 1028,9 hPa 0,0 l/m 0,3 km/h N -7,4 C -4,5 C 6,0 km/h
27.01.2017 05:00 -4,8 C 81 % 1028,7 hPa 0,0 l/m 0,1 km/h N -7,5 C -4,8 C 4,0 km/h
27.01.2017 06:00 -5,2 C 84 % 1028,4 hPa 0,0 l/m 0,1 km/h N -7,5 C -5,2 C 2,8 km/h
27.01.2017 07:00 -5,3 C 83 % 1028,3 hPa 0,0 l/m 0,0 km/h N -7,7 C -5,3 C 2,0 km/h
27.01.2017 08:00 -5,4 C 83 % 1028,5 hPa 0,0 l/m 0,3 km/h N -7,8 C -5,4 C 5,6 km/h
27.01.2017 09:00 -4,7 C 83 % 1028,9 hPa 0,0 l/m 2,1 km/h N -7,1 C -4,7 C 8,9 km/h
27.01.2017 10:00 -3,7 C 82 % 1028,9 hPa 0,0 l/m 3,4 km/h N -6,4 C -3,7 C 16,9 km/h
27.01.2017 11:00 -2,8 C 79 % 1028,8 hPa 0,0 l/m 2,5 km/h N -5,9 C -2,8 C 7,6 km/h
27.01.2017 12:00 -2,2 C 78 % 1028,3 hPa 0,0 l/m 1,9 km/h N -5,5 C -2,2 C 8,0 km/h
27.01.2017 13:00 -1,4 C 76 % 1027,8 hPa 0,0 l/m 1,3 km/h N -5,1 C -1,4 C 9,3 km/h
27.01.2017 14:00 -1,8 C 77 % 1027,6 hPa 0,0 l/m 0,6 km/h N -5,4 C -1,8 C 6,8 km/h
27.01.2017 15:00 -2,3 C 78 % 1027,8 hPa 0,0 l/m 0,8 km/h N -5,6 C -2,3 C 10,4 km/h
27.01.2017 16:00 -2,7 C 79 % 1027,8 hPa 0,0 l/m 0,8 km/h N -5,8 C -2,7 C 6,0 km/h
27.01.2017 17:00 -3,3 C 80 % 1027,8 hPa 0,0 l/m 0,3 km/h N -6,2 C -3,3 C 4,4 km/h
27.01.2017 18:00 -3,8 C 81 % 1027,9 hPa 0,0 l/m 0,5 km/h N -6,5 C -3,8 C 4,8 km/h
27.01.2017 19:00 -4,1 C 82 % 1028,0 hPa 0,0 l/m 0,5 km/h N -6,7 C -4,1 C 7,6 km/h
27.01.2017 20:00 -4,4 C 82 % 1027,9 hPa 0,0 l/m 0,5 km/h N -6,9 C -4,4 C 6,8 km/h
27.01.2017 21:00 -4,6 C 83 % 1027,5 hPa 0,0 l/m 0,6 km/h N -7,0 C -4,6 C 7,2 km/h
27.01.2017 22:00 -4,6 C 83 % 1027,2 hPa 0,0 l/m 1,1 km/h N -7,0 C -4,6 C 7,6 km/h
27.01.2017 23:00 -4,6 C 83 % 1026,9 hPa 0,0 l/m 1,1 km/h N -7,0 C -4,6 C 8,9 km/h
28.01.2017 00:00 -4,6 C 83 % 1026,5 hPa 0,0 l/m 0,8 km/h N -7,0 C -4,6 C 7,2 km/h
28.01.2017 01:00 -4,7 C 83 % 1026,1 hPa 0,0 l/m 1,1 km/h N -7,1 C -4,7 C 8,9 km/h
28.01.2017 02:00 -4,8 C 83 % 1025,9 hPa 0,0 l/m 0,7 km/h N -7,2 C -4,8 C 9,3 km/h
28.01.2017 03:00 -5,3 C 83 % 1025,7 hPa 0,0 l/m 1,1 km/h N -7,7 C -5,3 C 9,3 km/h
28.01.2017 04:00 -5,7 C 83 % 1025,6 hPa 0,0 l/m 0,8 km/h N -8,1 C -5,7 C 8,4 km/h
28.01.2017 05:00 -6,0 C 84 % 1025,5 hPa 0,0 l/m 1,2 km/h N -8,2 C -6,0 C 8,4 km/h
28.01.2017 06:00 -6,1 C 84 % 1025,9 hPa 0,0 l/m 1,3 km/h N -8,3 C -6,1 C 7,6 km/h
28.01.2017 07:00 -6,2 C 84 % 1026,3 hPa 0,0 l/m 0,1 km/h N -8,4 C -6,2 C 3,6 km/h
28.01.2017 08:00 -6,2 C 85 % 1026,8 hPa 0,0 l/m 0,6 km/h N -8,3 C -6,2 C 6,0 km/h
28.01.2017 09:00 -6,2 C 85 % 1027,0 hPa 0,0 l/m 0,6 km/h N -8,3 C -6,2 C 6,4 km/h
28.01.2017 10:00 -5,9 C 84 % 1027,3 hPa 0,0 l/m 0,6 km/h N -8,1 C -5,9 C 4,4 km/h
28.01.2017 11:00 -5,6 C 85 % 1027,0 hPa 0,0 l/m 0,2 km/h N -7,7 C -5,6 C 5,2 km/h
28.01.2017 12:00 -5,2 C 84 % 1026,7 hPa 0,0 l/m 0,2 km/h N -7,5 C -5,2 C 5,2 km/h
28.01.2017 13:00 -5,1 C 84 % 1026,4 hPa 0,0 l/m 0,2 km/h N -7,4 C -5,1 C 4,0 km/h
28.01.2017 14:00 -4,8 C 83 % 1026,4 hPa 0,0 l/m 0,5 km/h N -7,3 C -4,8 C 6,8 km/h
28.01.2017 15:00 -4,8 C 83 % 1026,4 hPa 0,0 l/m 0,1 km/h N -7,3 C -4,8 C 4,0 km/h
28.01.2017 16:00 -5,0 C 82 % 1026,6 hPa 0,0 l/m 0,1 km/h N -7,5 C -5,0 C 3,6 km/h
28.01.2017 17:00 -5,1 C 83 % 1026,7 hPa 0,0 l/m 0,0 km/h N -7,5 C -5,1 C 2,4 km/h
28.01.2017 18:00 -5,1 C 83 % 1027,0 hPa 0,0 l/m 0,0 km/h N -7,5 C -5,1 C 1,2 km/h
28.01.2017 19:00 -5,2 C 84 % 1027,2 hPa 0,0 l/m 0,0 km/h N -7,5 C -5,2 C 1,6 km/h
28.01.2017 20:00 -5,2 C 84 % 1027,3 hPa 0,0 l/m 0,1 km/h N -7,5 C -5,2 C 2,4 km/h
28.01.2017 21:00 -5,3 C 84 % 1027,5 hPa 0,0 l/m 0,0 km/h N -7,6 C -5,3 C 3,2 km/h
28.01.2017 22:00 -5,4 C 84 % 1027,8 hPa 0,0 l/m 0,4 km/h N -7,6 C -5,4 C 4,0 km/h
28.01.2017 23:00 -5,5 C 84 % 1027,9 hPa 0,0 l/m 0,1 km/h N -7,8 C -5,5 C 2,4 km/h
29.01.2017 00:00 -5,6 C 84 % 1027,9 hPa 0,0 l/m 0,1 km/h N -7,9 C -5,6 C 2,4 km/h
29.01.2017 01:00 -5,8 C 84 % 1027,8 hPa 0,0 l/m 0,0 km/h N -8,0 C -5,8 C 2,0 km/h
29.01.2017 02:00 -5,9 C 84 % 1027,8 hPa 0,0 l/m 0,1 km/h N -8,2 C -5,9 C 4,4 km/h
29.01.2017 03:00 -6,1 C 84 % 1027,9 hPa 0,0 l/m 0,2 km/h N -8,4 C -6,1 C 4,0 km/h
29.01.2017 04:00 -6,1 C 84 % 1028,2 hPa 0,0 l/m 0,3 km/h N -8,4 C -6,1 C 4,4 km/h
29.01.2017 05:00 -6,1 C 85 % 1028,3 hPa 0,0 l/m 0,2 km/h N -8,3 C -6,1 C 4,4 km/h
29.01.2017 06:00 -6,1 C 85 % 1028,7 hPa 0,0 l/m 0,1 km/h N -8,2 C -6,1 C 2,8 km/h
29.01.2017 07:00 -6,1 C 85 % 1029,0 hPa 0,0 l/m 0,5 km/h N -8,2 C -6,1 C 4,8 km/h
29.01.2017 08:00 -6,2 C 85 % 1029,2 hPa 0,0 l/m 0,4 km/h N -8,3 C -6,2 C 4,0 km/h
29.01.2017 09:00 -6,0 C 85 % 1029,3 hPa 0,0 l/m 0,1 km/h N -8,1 C -6,0 C 3,2 km/h
29.01.2017 10:00 -5,7 C 85 % 1029,3 hPa 0,0 l/m 0,0 km/h N -7,8 C -5,7 C 2,4 km/h
29.01.2017 11:00 -5,6 C 85 % 1029,1 hPa 0,0 l/m 0,3 km/h N -7,7 C -5,6 C 4,4 km/h
29.01.2017 12:00 -5,4 C 84 % 1028,8 hPa 0,0 l/m 0,1 km/h N -7,7 C -5,4 C 2,4 km/h
29.01.2017 13:00 -5,3 C 84 % 1028,6 hPa 0,0 l/m 0,3 km/h N -7,5 C -5,3 C 2,8 km/h
29.01.2017 14:00 -5,0 C 84 % 1028,4 hPa 0,0 l/m 0,1 km/h N -7,3 C -5,0 C 2,8 km/h
29.01.2017 15:00 -5,0 C 84 % 1028,4 hPa 0,0 l/m 0,1 km/h N -7,3 C -5,0 C 2,8 km/h
29.01.2017 16:00 -5,2 C 84 % 1028,5 hPa 0,0 l/m 0,1 km/h N -7,5 C -5,2 C 4,0 km/h
29.01.2017 17:00 -5,3 C 84 % 1028,7 hPa 0,0 l/m 0,9 km/h N -7,6 C -5,3 C 7,2 km/h
29.01.2017 18:00 -5,7 C 84 % 1028,8 hPa 0,0 l/m 0,8 km/h N -7,9 C -5,7 C 6,0 km/h
29.01.2017 19:00 -6,0 C 84 % 1028,7 hPa 0,0 l/m 0,3 km/h N -8,2 C -6,0 C 4,4 km/h
29.01.2017 20:00 -6,0 C 84 % 1028,7 hPa 0,0 l/m 0,1 km/h N -8,3 C -6,0 C 3,2 km/h
29.01.2017 21:00 -5,9 C 84 % 1028,7 hPa 0,0 l/m 0,1 km/h N -8,2 C -5,9 C 2,0 km/h
29.01.2017 22:00 -5,9 C 84 % 1028,7 hPa 0,0 l/m 0,1 km/h N -8,2 C -5,9 C 3,2 km/h
29.01.2017 23:00 -6,1 C 85 % 1028,6 hPa 0,0 l/m 0,1 km/h N -8,2 C -6,1 C 2,8 km/h
Min-Datum _ 23.01.17 26.01.17 28.01.17 - 23.01.17 - 23.01.17 24.01.17 23.01.17
_ Min-Zeit 07:45 13:15 05:15 - 00:00 - 07:30 09:45 02:45
Minimum _ -6,6 C 61 % 1025,4 hPa - 0,0 km/h - -9,2 C -8,3 C 0,0 km/h
Max-Datum _ 26.01.17 27.01.17 26.01.17 23.01.17 25.01.17 - 26.01.17 26.01.17 27.01.17
_ Max-Zeit 13:15 06:15 09:00 00:00 03:45 - 12:30 13:15 10:45
Maximum _ 2,4 C 89 % 1033,0 hPa 0,0 l/m 9,1 km/h
N
- -4,0 C 2,4 C 25,7 km/h
N
Durchschnitt _ -4,1 C 81 % 1028,7 hPa #0,0 l/m 1,5 km/h N -7,0 C -4,2 C 6,9 km/h